Argent Gerbera — V7UC4 — position and weather

sailwx.info

Track history (hours):
 
Tides and Currents Weather Stations Pressure Air Temp Water Temp Dewpoint Dewpoint Depression Visibility Wind Speed Wind Dir Waves Ship Positions

Argent Gerbera

Last reported at 2015-Feb-10 13:26 UTC. Time now 2015-Mar-01 15:12 UTC.
Position N 30°54' E 122°38'.
Warning: this ship's position is 19 days out of date.

Length 175 m; draft 8.6 m.

Type: Ship (hazmat cat B). MMSI: 538003929.

Date/timePositionNaut miles runAvg speedWind from/ knotsBaromVisibWave heightAir tempDewpointWater temp
2015-Feb-10 13:26N 30°54' E 122°38'1414.3
2015-Feb-10 12:29N 30°50' E 122°23'1212.6
2015-Feb-10 11:33N 30°41' E 122°15'1212.2
2015-Feb-10 10:34N 30°31' E 122°06'1515.3
2015-Feb-10 09:33N 30°30' E 121°48'1514.4
2015-Feb-10 08:30N 30°32' E 121°31'1111.5
2015-Feb-10 07:33N 30°37' E 121°20'1010.2
2015-Feb-10 06:33N 30°45' E 121°27'1 0.9
2015-Feb-10 05:31N 30°46' E 121°27'0 0.0
2015-Feb-10 04:28N 30°46' E 121°27'0 0.0
2015-Feb-10 03:31N 30°46' E 121°27'0 0.0
2015-Feb-10 02:28N 30°46' E 121°27'0 0.0
2015-Feb-10 01:31N 30°46' E 121°27'0 0.0
2015-Feb-10 00:31N 30°46' E 121°27'0 0.0
2015-Feb-09 23:31N 30°46' E 121°27'0 0.0
2015-Feb-09 22:19N 30°46' E 121°27'0 0.0
2015-Feb-09 21:31N 30°46' E 121°27'0 0.0
2015-Feb-09 20:31N 30°46' E 121°27'0 0.0
2015-Feb-09 19:31N 30°46' E 121°27'0 0.0
2015-Feb-09 18:31N 30°46' E 121°27'0 0.0
2015-Feb-09 17:31N 30°46' E 121°27'0 0.0
2015-Feb-09 16:31N 30°46' E 121°27'0 0.0
2015-Feb-09 15:31N 30°46' E 121°27'0 0.0
2015-Feb-09 14:31N 30°46' E 121°27'0 0.0
2015-Feb-09 13:31N 30°46' E 121°27'0 0.0
2015-Feb-09 12:31N 30°46' E 121°27'0 0.0
2015-Feb-09 11:31N 30°46' E 121°27'0 0.0
2015-Feb-09 10:25N 30°46' E 121°27'0 0.0
2015-Feb-09 09:28N 30°46' E 121°27'0 0.0
2015-Feb-09 08:28N 30°46' E 121°27'0 0.0
2015-Feb-09 07:31N 30°46' E 121°27'0 0.0
2015-Feb-09 06:31N 30°46' E 121°27'0 0.0
2015-Feb-09 05:31N 30°46' E 121°27'0 0.0
2015-Feb-09 04:31N 30°46' E 121°27'0 0.2
2015-Feb-09 03:33N 30°46' E 121°27'8 8.2
2015-Feb-09 02:33N 30°39' E 121°23'2 2.3
2015-Feb-09 01:31N 30°37' E 121°21'0 0.0
2015-Feb-09 00:31N 30°37' E 121°21'0 0.0
2015-Feb-08 23:31N 30°37' E 121°21'0 0.0
2015-Feb-08 22:31N 30°37' E 121°21'0 0.0
2015-Feb-08 21:31N 30°37' E 121°21'0 0.1
2015-Feb-08 20:31N 30°37' E 121°21'0 0.2
2015-Feb-08 19:31N 30°37' E 121°21'0 0.0
2015-Feb-08 18:31N 30°37' E 121°21'0 0.1
2015-Feb-08 17:31N 30°37' E 121°21'0 0.0
2015-Feb-08 16:31N 30°37' E 121°21'0 0.1
2015-Feb-08 15:31N 30°37' E 121°21'0 0.1
2015-Feb-08 14:25N 30°37' E 121°21'0 0.1
2015-Feb-08 13:31N 30°37' E 121°21'0 0.0
2015-Feb-08 12:31N 30°37' E 121°21'0 0.0
2015-Feb-08 11:31N 30°37' E 121°21'0 0.0
2015-Feb-08 10:31N 30°37' E 121°21'0 0.0
2015-Feb-08 09:31N 30°37' E 121°21'0 0.1
2015-Feb-08 08:28N 30°37' E 121°21'0 0.2
2015-Feb-08 07:31N 30°37' E 121°21'0 0.1
2015-Feb-08 06:31N 30°37' E 121°21'0 0.0
2015-Feb-08 05:31N 30°37' E 121°21'0 0.0
2015-Feb-08 04:28N 30°37' E 121°21'0 0.0
2015-Feb-08 03:31N 30°37' E 121°21'0 0.1
2015-Feb-08 02:31N 30°37' E 121°21'0 0.2
2015-Feb-08 01:31N 30°37' E 121°21'1 1.0
2015-Feb-08 00:33N 30°37' E 121°22'5 5.2
2015-Feb-07 23:34N 30°34' E 121°27'1110.5
2015-Feb-07 22:33N 30°30' E 121°38'1111.3
2015-Feb-07 21:33N 30°31' E 121°51'1211.7
2015-Feb-07 20:33N 30°32' E 122°05'1211.9
2015-Feb-07 19:33N 30°41' E 122°14'1313.5
2015-Feb-07 18:33N 30°52' E 122°24'1414.5
2015-Feb-07 17:34N 30°54' E 122°40'67 8.4
2015-Feb-07 09:33N 29°47' E 122°34'1414.2
2015-Feb-07 08:33N 29°45' E 122°18'9 9.4
2015-Feb-07 07:33N 29°49' E 122°08'2 1.3
2015-Feb-07 06:17N 29°48' E 122°06'0 0.1
2015-Feb-07 05:17N 29°48' E 122°06'0 0.0
2015-Feb-07 04:32N 29°48' E 122°06'0 0.0
2015-Feb-07 03:32N 29°48' E 122°06'0 0.0
2015-Feb-07 02:26N 29°48' E 122°06'0 0.2
2015-Feb-07 01:26N 29°48' E 122°06'0 0.1
2015-Feb-07 00:32N 29°48' E 122°06'0 0.0
2015-Feb-06 23:20N 29°48' E 122°06'0 0.0
2015-Feb-06 22:26N 29°48' E 122°06'0 0.0
2015-Feb-06 21:23N 29°48' E 122°06'0 0.0
2015-Feb-06 20:14N 29°48' E 122°06'0 0.2
2015-Feb-06 19:32N 29°48' E 122°06'0 0.0
2015-Feb-06 18:26N 29°48' E 122°06'0 0.0
2015-Feb-06 17:32N 29°48' E 122°06'0 0.0
2015-Feb-06 16:32N 29°48' E 122°06'0 0.0
2015-Feb-06 15:17N 29°48' E 122°06'0 0.0
2015-Feb-06 14:32N 29°48' E 122°06'0 0.1
2015-Feb-06 13:32N 29°48' E 122°06'0 0.1
2015-Feb-06 12:29N 29°48' E 122°06'1 1.2
2015-Feb-06 11:28N 29°47' E 122°05'0 0.0
2015-Feb-06 10:22N 29°47' E 122°05'0 0.0
2015-Feb-06 09:10N 29°47' E 122°05'0 0.0
2015-Feb-06 08:16N 29°47' E 122°05'0 0.0
2015-Feb-06 07:31N 29°47' E 122°05'0 0.0
2015-Feb-06 06:16N 29°47' E 122°05'0 0.0
2015-Feb-06 05:22N 29°47' E 122°05'0 0.0
2015-Feb-06 04:19N 29°47' E 122°05'0 0.0
2015-Feb-06 03:16N 29°47' E 122°05'0 0.0
2015-Feb-06 02:16N 29°47' E 122°05'0 0.0
2015-Feb-05 22:22N 29°47' E 122°05'0 0.0
2015-Feb-05 20:22N 29°47' E 122°05'0 0.0
2015-Feb-05 19:28N 29°47' E 122°05'0 0.0
2015-Feb-05 18:22N 29°47' E 122°05'0 0.0
2015-Feb-05 16:28N 29°47' E 122°05'0 0.0
2015-Feb-05 15:22N 29°47' E 122°05'0 0.0
2015-Feb-05 14:10N 29°47' E 122°05'0 0.0
2015-Feb-05 11:25N 29°47' E 122°05'0 0.0
2015-Feb-05 10:28N 29°47' E 122°05'0 0.0
2015-Feb-05 09:04N 29°47' E 122°05'0 0.0
2015-Feb-05 08:16N 29°47' E 122°05'0 0.0
2015-Feb-05 07:28N 29°47' E 122°05'0 0.0
2015-Feb-05 06:10N 29°47' E 122°05'0 0.0
2015-Feb-05 05:31N 29°47' E 122°05'0 0.0
2015-Feb-05 03:28N 29°47' E 122°05'0 0.0
2015-Feb-05 01:16N 29°47' E 122°05'0 0.0
2015-Feb-05 00:19N 29°47' E 122°05'0 0.0
2015-Feb-04 22:28N 29°47' E 122°05'0 0.0
2015-Feb-04 20:28N 29°47' E 122°05'0 0.0
2015-Feb-04 19:22N 29°47' E 122°05'0 0.0
2015-Feb-04 18:25N 29°47' E 122°05'0 0.0
2015-Feb-04 17:07N 29°47' E 122°05'0 0.0
2015-Feb-04 15:25N 29°47' E 122°05'0 0.0
2015-Feb-04 14:16N 29°47' E 122°05'0 0.0
2015-Feb-04 13:28N 29°47' E 122°05'0 0.0
2015-Feb-04 12:28N 29°47' E 122°05'0 0.0
2015-Feb-04 11:19N 29°47' E 122°05'0 0.0
2015-Feb-04 10:28N 29°47' E 122°05'0 0.0
2015-Feb-04 06:22N 29°47' E 122°05'0 0.0
2015-Feb-04 05:22N 29°47' E 122°05'0 0.0
2015-Feb-04 03:05N 29°47' E 122°05'0 0.0
2015-Feb-04 02:17N 29°47' E 122°05'0 0.0
2015-Feb-04 01:23N 29°47' E 122°05'0 0.0
2015-Feb-04 00:29N 29°47' E 122°05'0 0.0
2015-Feb-03 23:29N 29°47' E 122°05'0 0.0
2015-Feb-03 22:23N 29°47' E 122°05'0 0.0
2015-Feb-03 21:14N 29°47' E 122°05'0 0.0
2015-Feb-03 20:17N 29°47' E 122°05'0 0.0
2015-Feb-03 19:11N 29°47' E 122°05'0 0.0
2015-Feb-03 18:26N 29°47' E 122°05'0 0.0
2015-Feb-03 17:17N 29°47' E 122°05'0 0.0
2015-Feb-03 16:14N 29°47' E 122°05'0 0.0
2015-Feb-03 15:08N 29°47' E 122°05'0 0.0
2015-Feb-03 13:11N 29°47' E 122°05'0 0.0
2015-Feb-03 12:26N 29°47' E 122°05'0 0.0
2015-Feb-03 11:11N 29°47' E 122°05'0 0.0
2015-Feb-03 09:23N 29°47' E 122°05'0 0.0
2015-Feb-03 08:11N 29°47' E 122°05'0 0.0
2015-Feb-03 07:03N 29°47' E 122°05'0 0.0
2015-Feb-03 06:18N 29°47' E 122°05'0 0.0
2015-Feb-03 05:15N 29°47' E 122°05'0 0.0
2015-Feb-03 04:12N 29°47' E 122°05'0 0.0
2015-Feb-03 02:21N 29°47' E 122°05'0 0.0
2015-Feb-03 01:27N 29°47' E 122°05'0 0.0
2015-Feb-03 00:10N 29°47' E 122°05'0 0.0
2015-Feb-02 23:33N 29°47' E 122°05'0 0.0
2015-Feb-02 22:33N 29°47' E 122°05'0 0.0
2015-Feb-02 21:15N 29°47' E 122°05'0 0.0
2015-Feb-02 20:27N 29°47' E 122°05'0 0.0
2015-Feb-02 18:27N 29°47' E 122°05'0 0.0
2015-Feb-02 17:33N 29°47' E 122°05'0 0.0
2015-Feb-02 14:21N 29°47' E 122°05'0 0.0
2015-Feb-02 13:03N 29°47' E 122°05'0 0.0
2015-Feb-02 12:21N 29°47' E 122°05'0 0.0
2015-Feb-02 11:27N 29°47' E 122°05'0 0.0
2015-Feb-02 10:18N 29°47' E 122°05'0 0.0
2015-Feb-02 08:28N 29°47' E 122°05'0 0.0
2015-Feb-02 07:10N 29°47' E 122°05'0 0.0
2015-Feb-02 05:22N 29°47' E 122°05'0 0.0
2015-Feb-02 04:28N 29°47' E 122°05'0 0.0
2015-Feb-02 03:28N 29°47' E 122°05'0 0.3
2015-Feb-02 02:26N 29°47' E 122°05'0 0.2
2015-Feb-02 01:25N 29°47' E 122°05'0 0.0
2015-Feb-01 23:31N 29°47' E 122°05'0 0.0
2015-Feb-01 22:07N 29°47' E 122°05'0 0.0
2015-Feb-01 21:28N 29°47' E 122°05'0 0.0
2015-Feb-01 20:07N 29°47' E 122°05'0 0.0
2015-Feb-01 19:16N 29°47' E 122°05'0 0.0
2015-Feb-01 18:19N 29°47' E 122°05'0 0.0
2015-Feb-01 16:31N 29°47' E 122°05'0 0.0
2015-Feb-01 15:25N 29°47' E 122°05'0 0.0
2015-Feb-01 12:25N 29°47' E 122°05'0 0.0
2015-Feb-01 11:28N 29°47' E 122°05'0 0.0
2015-Feb-01 09:30N 29°47' E 122°05'0 0.0
2015-Feb-01 08:24N 29°47' E 122°05'0 0.0
2015-Feb-01 07:30N 29°47' E 122°05'0 0.0
2015-Feb-01 06:18N 29°47' E 122°05'0 0.0
2015-Feb-01 05:24N 29°47' E 122°05'0 0.0
2015-Feb-01 04:12N 29°47' E 122°05'0 0.0
2015-Feb-01 03:24N 29°47' E 122°05'0 0.0
2015-Feb-01 02:24N 29°47' E 122°05'0 0.0
2015-Feb-01 01:18N 29°47' E 122°05'0 0.0
2015-Feb-01 00:30N 29°47' E 122°05'0 0.0
2015-Jan-31 23:24N 29°47' E 122°05'0 0.0
2015-Jan-31 22:30N 29°47' E 122°05'0 0.0
2015-Jan-31 21:30N 29°47' E 122°05'0 0.0
2015-Jan-31 20:24N 29°47' E 122°05'0 0.0
2015-Jan-31 19:30N 29°47' E 122°05'0 0.0
2015-Jan-31 18:12N 29°47' E 122°05'0 0.0
2015-Jan-31 17:30N 29°47' E 122°05'0 0.0
2015-Jan-31 16:30N 29°47' E 122°05'0 0.0
2015-Jan-31 15:06N 29°47' E 122°05'0 0.0
2015-Jan-31 14:06N 29°47' E 122°05'  
Track history (hours):
 
Tides and Currents Weather Stations Pressure Air Temp Water Temp Dewpoint Dewpoint Depression Visibility Wind Speed Wind Dir Waves Ship Positions

Argent Gerbera

Last reported at 2015-Feb-10 13:26 UTC. Time now 2015-Mar-01 15:12 UTC.
Position N 30°54' E 122°38'.
Warning: this ship's position is 19 days out of date.

Length 175 m; draft 8.6 m.

Type: Ship (hazmat cat B). MMSI: 538003929.

Date/timePositionNaut miles runAvg speedWind from/ knotsBaromVisibWave heightAir tempDewpointWater temp
2015-Feb-10 13:26N 30°54' E 122°38'1414.3
2015-Feb-10 12:29N 30°50' E 122°23'1212.6
2015-Feb-10 11:33N 30°41' E 122°15'1212.2
2015-Feb-10 10:34N 30°31' E 122°06'1515.3
2015-Feb-10 09:33N 30°30' E 121°48'1514.4
2015-Feb-10 08:30N 30°32' E 121°31'1111.5
2015-Feb-10 07:33N 30°37' E 121°20'1010.2
2015-Feb-10 06:33N 30°45' E 121°27'1 0.9
2015-Feb-10 05:31N 30°46' E 121°27'0 0.0
2015-Feb-10 04:28N 30°46' E 121°27'0 0.0
2015-Feb-10 03:31N 30°46' E 121°27'0 0.0
2015-Feb-10 02:28N 30°46' E 121°27'0 0.0
2015-Feb-10 01:31N 30°46' E 121°27'0 0.0
2015-Feb-10 00:31N 30°46' E 121°27'0 0.0
2015-Feb-09 23:31N 30°46' E 121°27'0 0.0
2015-Feb-09 22:19N 30°46' E 121°27'0 0.0
2015-Feb-09 21:31N 30°46' E 121°27'0 0.0
2015-Feb-09 20:31N 30°46' E 121°27'0 0.0
2015-Feb-09 19:31N 30°46' E 121°27'0 0.0
2015-Feb-09 18:31N 30°46' E 121°27'0 0.0
2015-Feb-09 17:31N 30°46' E 121°27'0 0.0
2015-Feb-09 16:31N 30°46' E 121°27'0 0.0
2015-Feb-09 15:31N 30°46' E 121°27'0 0.0
2015-Feb-09 14:31N 30°46' E 121°27'0 0.0
2015-Feb-09 13:31N 30°46' E 121°27'0 0.0
2015-Feb-09 12:31N 30°46' E 121°27'0 0.0
2015-Feb-09 11:31N 30°46' E 121°27'0 0.0
2015-Feb-09 10:25N 30°46' E 121°27'0 0.0
2015-Feb-09 09:28N 30°46' E 121°27'0 0.0
2015-Feb-09 08:28N 30°46' E 121°27'0 0.0
2015-Feb-09 07:31N 30°46' E 121°27'0 0.0
2015-Feb-09 06:31N 30°46' E 121°27'0 0.0
2015-Feb-09 05:31N 30°46' E 121°27'0 0.0
2015-Feb-09 04:31N 30°46' E 121°27'0 0.2
2015-Feb-09 03:33N 30°46' E 121°27'8 8.2
2015-Feb-09 02:33N 30°39' E 121°23'2 2.3
2015-Feb-09 01:31N 30°37' E 121°21'0 0.0
2015-Feb-09 00:31N 30°37' E 121°21'0 0.0
2015-Feb-08 23:31N 30°37' E 121°21'0 0.0
2015-Feb-08 22:31N 30°37' E 121°21'0 0.0
2015-Feb-08 21:31N 30°37' E 121°21'0 0.1
2015-Feb-08 20:31N 30°37' E 121°21'0 0.2
2015-Feb-08 19:31N 30°37' E 121°21'0 0.0
2015-Feb-08 18:31N 30°37' E 121°21'0 0.1
2015-Feb-08 17:31N 30°37' E 121°21'0 0.0
2015-Feb-08 16:31N 30°37' E 121°21'0 0.1
2015-Feb-08 15:31N 30°37' E 121°21'0 0.1
2015-Feb-08 14:25N 30°37' E 121°21'0 0.1
2015-Feb-08 13:31N 30°37' E 121°21'0 0.0
2015-Feb-08 12:31N 30°37' E 121°21'0 0.0
2015-Feb-08 11:31N 30°37' E 121°21'0 0.0
2015-Feb-08 10:31N 30°37' E 121°21'0 0.0
2015-Feb-08 09:31N 30°37' E 121°21'0 0.1
2015-Feb-08 08:28N 30°37' E 121°21'0 0.2
2015-Feb-08 07:31N 30°37' E 121°21'0 0.1
2015-Feb-08 06:31N 30°37' E 121°21'0 0.0
2015-Feb-08 05:31N 30°37' E 121°21'0 0.0
2015-Feb-08 04:28N 30°37' E 121°21'0 0.0
2015-Feb-08 03:31N 30°37' E 121°21'0 0.1
2015-Feb-08 02:31N 30°37' E 121°21'0 0.2
2015-Feb-08 01:31N 30°37' E 121°21'1 1.0
2015-Feb-08 00:33N 30°37' E 121°22'5 5.2
2015-Feb-07 23:34N 30°34' E 121°27'1110.5
2015-Feb-07 22:33N 30°30' E 121°38'1111.3
2015-Feb-07 21:33N 30°31' E 121°51'1211.7
2015-Feb-07 20:33N 30°32' E 122°05'1211.9
2015-Feb-07 19:33N 30°41' E 122°14'1313.5
2015-Feb-07 18:33N 30°52' E 122°24'1414.5
2015-Feb-07 17:34N 30°54' E 122°40'67 8.4
2015-Feb-07 09:33N 29°47' E 122°34'1414.2
2015-Feb-07 08:33N 29°45' E 122°18'9 9.4
2015-Feb-07 07:33N 29°49' E 122°08'2 1.3
2015-Feb-07 06:17N 29°48' E 122°06'0 0.1
2015-Feb-07 05:17N 29°48' E 122°06'0 0.0
2015-Feb-07 04:32N 29°48' E 122°06'0 0.0
2015-Feb-07 03:32N 29°48' E 122°06'0 0.0
2015-Feb-07 02:26N 29°48' E 122°06'0 0.2
2015-Feb-07 01:26N 29°48' E 122°06'0 0.1
2015-Feb-07 00:32N 29°48' E 122°06'0 0.0
2015-Feb-06 23:20N 29°48' E 122°06'0 0.0
2015-Feb-06 22:26N 29°48' E 122°06'0 0.0
2015-Feb-06 21:23N 29°48' E 122°06'0 0.0
2015-Feb-06 20:14N 29°48' E 122°06'0 0.2
2015-Feb-06 19:32N 29°48' E 122°06'0 0.0
2015-Feb-06 18:26N 29°48' E 122°06'0 0.0
2015-Feb-06 17:32N 29°48' E 122°06'0 0.0
2015-Feb-06 16:32N 29°48' E 122°06'0 0.0
2015-Feb-06 15:17N 29°48' E 122°06'0 0.0
2015-Feb-06 14:32N 29°48' E 122°06'0 0.1
2015-Feb-06 13:32N 29°48' E 122°06'0 0.1
2015-Feb-06 12:29N 29°48' E 122°06'1 1.2
2015-Feb-06 11:28N 29°47' E 122°05'0 0.0
2015-Feb-06 10:22N 29°47' E 122°05'0 0.0
2015-Feb-06 09:10N 29°47' E 122°05'0 0.0
2015-Feb-06 08:16N 29°47' E 122°05'0 0.0
2015-Feb-06 07:31N 29°47' E 122°05'0 0.0
2015-Feb-06 06:16N 29°47' E 122°05'0 0.0
2015-Feb-06 05:22N 29°47' E 122°05'0 0.0
2015-Feb-06 04:19N 29°47' E 122°05'0 0.0
2015-Feb-06 03:16N 29°47' E 122°05'0 0.0
2015-Feb-06 02:16N 29°47' E 122°05'0 0.0
2015-Feb-05 22:22N 29°47' E 122°05'0 0.0
2015-Feb-05 20:22N 29°47' E 122°05'0 0.0
2015-Feb-05 19:28N 29°47' E 122°05'0 0.0
2015-Feb-05 18:22N 29°47' E 122°05'0 0.0
2015-Feb-05 16:28N 29°47' E 122°05'0 0.0
2015-Feb-05 15:22N 29°47' E 122°05'0 0.0
2015-Feb-05 14:10N 29°47' E 122°05'0 0.0
2015-Feb-05 11:25N 29°47' E 122°05'0 0.0
2015-Feb-05 10:28N 29°47' E 122°05'0 0.0
2015-Feb-05 09:04N 29°47' E 122°05'0 0.0
2015-Feb-05 08:16N 29°47' E 122°05'0 0.0
2015-Feb-05 07:28N 29°47' E 122°05'0 0.0
2015-Feb-05 06:10N 29°47' E 122°05'0 0.0
2015-Feb-05 05:31N 29°47' E 122°05'0 0.0
2015-Feb-05 03:28N 29°47' E 122°05'0 0.0
2015-Feb-05 01:16N 29°47' E 122°05'0 0.0
2015-Feb-05 00:19N 29°47' E 122°05'0 0.0
2015-Feb-04 22:28N 29°47' E 122°05'0 0.0
2015-Feb-04 20:28N 29°47' E 122°05'0 0.0
2015-Feb-04 19:22N 29°47' E 122°05'0 0.0
2015-Feb-04 18:25N 29°47' E 122°05'0 0.0
2015-Feb-04 17:07N 29°47' E 122°05'0 0.0
2015-Feb-04 15:25N 29°47' E 122°05'0 0.0
2015-Feb-04 14:16N 29°47' E 122°05'0 0.0
2015-Feb-04 13:28N 29°47' E 122°05'0 0.0
2015-Feb-04 12:28N 29°47' E 122°05'0 0.0
2015-Feb-04 11:19N 29°47' E 122°05'0 0.0
2015-Feb-04 10:28N 29°47' E 122°05'0 0.0
2015-Feb-04 06:22N 29°47' E 122°05'0 0.0
2015-Feb-04 05:22N 29°47' E 122°05'0 0.0
2015-Feb-04 03:05N 29°47' E 122°05'0 0.0
2015-Feb-04 02:17N 29°47' E 122°05'0 0.0
2015-Feb-04 01:23N 29°47' E 122°05'0 0.0
2015-Feb-04 00:29N 29°47' E 122°05'0 0.0
2015-Feb-03 23:29N 29°47' E 122°05'0 0.0
2015-Feb-03 22:23N 29°47' E 122°05'0 0.0
2015-Feb-03 21:14N 29°47' E 122°05'0 0.0
2015-Feb-03 20:17N 29°47' E 122°05'0 0.0
2015-Feb-03 19:11N 29°47' E 122°05'0 0.0
2015-Feb-03 18:26N 29°47' E 122°05'0 0.0
2015-Feb-03 17:17N 29°47' E 122°05'0 0.0
2015-Feb-03 16:14N 29°47' E 122°05'0 0.0
2015-Feb-03 15:08N 29°47' E 122°05'0 0.0
2015-Feb-03 13:11N 29°47' E 122°05'0 0.0
2015-Feb-03 12:26N 29°47' E 122°05'0 0.0
2015-Feb-03 11:11N 29°47' E 122°05'0 0.0
2015-Feb-03 09:23N 29°47' E 122°05'0 0.0
2015-Feb-03 08:11N 29°47' E 122°05'0 0.0
2015-Feb-03 07:03N 29°47' E 122°05'0 0.0
2015-Feb-03 06:18N 29°47' E 122°05'0 0.0
2015-Feb-03 05:15N 29°47' E 122°05'0 0.0
2015-Feb-03 04:12N 29°47' E 122°05'0 0.0
2015-Feb-03 02:21N 29°47' E 122°05'0 0.0
2015-Feb-03 01:27N 29°47' E 122°05'0 0.0
2015-Feb-03 00:10N 29°47' E 122°05'0 0.0
2015-Feb-02 23:33N 29°47' E 122°05'0 0.0
2015-Feb-02 22:33N 29°47' E 122°05'0 0.0
2015-Feb-02 21:15N 29°47' E 122°05'0 0.0
2015-Feb-02 20:27N 29°47' E 122°05'0 0.0
2015-Feb-02 18:27N 29°47' E 122°05'0 0.0
2015-Feb-02 17:33N 29°47' E 122°05'0 0.0
2015-Feb-02 14:21N 29°47' E 122°05'0 0.0
2015-Feb-02 13:03N 29°47' E 122°05'0 0.0
2015-Feb-02 12:21N 29°47' E 122°05'0 0.0
2015-Feb-02 11:27N 29°47' E 122°05'0 0.0
2015-Feb-02 10:18N 29°47' E 122°05'0 0.0
2015-Feb-02 08:28N 29°47' E 122°05'0 0.0
2015-Feb-02 07:10N 29°47' E 122°05'0 0.0
2015-Feb-02 05:22N 29°47' E 122°05'0 0.0
2015-Feb-02 04:28N 29°47' E 122°05'0 0.0
2015-Feb-02 03:28N 29°47' E 122°05'0 0.3
2015-Feb-02 02:26N 29°47' E 122°05'0 0.2
2015-Feb-02 01:25N 29°47' E 122°05'0 0.0
2015-Feb-01 23:31N 29°47' E 122°05'0 0.0
2015-Feb-01 22:07N 29°47' E 122°05'0 0.0
2015-Feb-01 21:28N 29°47' E 122°05'0 0.0
2015-Feb-01 20:07N 29°47' E 122°05'0 0.0
2015-Feb-01 19:16N 29°47' E 122°05'0 0.0
2015-Feb-01 18:19N 29°47' E 122°05'0 0.0
2015-Feb-01 16:31N 29°47' E 122°05'0 0.0
2015-Feb-01 15:25N 29°47' E 122°05'0 0.0
2015-Feb-01 12:25N 29°47' E 122°05'0 0.0
2015-Feb-01 11:28N 29°47' E 122°05'0 0.0
2015-Feb-01 09:30N 29°47' E 122°05'0 0.0
2015-Feb-01 08:24N 29°47' E 122°05'0 0.0
2015-Feb-01 07:30N 29°47' E 122°05'0 0.0
2015-Feb-01 06:18N 29°47' E 122°05'0 0.0
2015-Feb-01 05:24N 29°47' E 122°05'0 0.0
2015-Feb-01 04:12N 29°47' E 122°05'0 0.0
2015-Feb-01 03:24N 29°47' E 122°05'0 0.0
2015-Feb-01 02:24N 29°47' E 122°05'0 0.0
2015-Feb-01 01:18N 29°47' E 122°05'0 0.0
2015-Feb-01 00:30N 29°47' E 122°05'0 0.0
2015-Jan-31 23:24N 29°47' E 122°05'0 0.0
2015-Jan-31 22:30N 29°47' E 122°05'0 0.0
2015-Jan-31 21:30N 29°47' E 122°05'0 0.0
2015-Jan-31 20:24N 29°47' E 122°05'0 0.0
2015-Jan-31 19:30N 29°47' E 122°05'0 0.0
2015-Jan-31 18:12N 29°47' E 122°05'0 0.0
2015-Jan-31 17:30N 29°47' E 122°05'0 0.0
2015-Jan-31 16:30N 29°47' E 122°05'0 0.0
2015-Jan-31 15:06N 29°47' E 122°05'0 0.0
2015-Jan-31 14:06N 29°47' E 122°05'  

Dump ship's entire track history